Latest Weather Observations for Weipa

IDQ60801

Issued at 10:02 pm EST Saturday 30 May 2015 (issued every 30 minutes, with the page automatically refreshed every 10 minutes)

About weather observations | Map of weather stations | Latest weather observations for QLD | Other Formats
Station Details ID: 027045 Name: WEIPA AERO Lat: -12.68 Lon: 141.92 Height: 17.96 m
Data from the previous 72 hours. | See also: Recent months at Weipa
Date/Time
EST
Temp
°C
App
Temp
°C
Dew
Point
Rel
Hum
%
Delta-T
°C
Wind Press
QNH
hPa
Press
MSL
hPa
Rain
since 9 am
mm
Dir
 
Spd
km/h
Gust
km/h
Spd
kts
Gust
kts
30/10:00pm 25.8 26.1 20.5 72 3.5 ESE 19 26 10 14 1014.3 - 0.0
30/09:30pm 26.1 26.2 20.3 70 3.8 SE 20 32 11 17 1014.1 - 0.0
30/09:00pm 26.3 27.3 20.3 69 3.9 SE 15 20 8 11 1013.9 1013.7 0.0
30/08:30pm 26.5 26.6 20.0 67 4.2 SE 19 28 10 15 1013.5 - 0.0
30/08:00pm 26.7 27.1 19.9 66 4.4 SE 17 22 9 12 1013.2 - 0.0
30/07:30pm 27.1 27.4 19.7 64 4.8 ESE 17 26 9 14 1013.0 - 0.0
30/07:00pm 27.3 27.0 19.5 62 5.1 ESE 20 35 11 19 1012.4 - 0.0
30/06:30pm 27.7 26.5 19.3 60 5.4 ESE 24 33 13 18 1012.0 - 0.0
30/06:00pm 28.0 28.6 19.5 60 5.5 E 15 20 8 11 1011.7 1011.5 0.0
30/05:30pm 28.4 28.6 19.3 57 5.9 E 17 22 9 12 1011.4 - 0.0
30/05:00pm 28.8 29.2 19.8 58 5.9 E 17 24 9 13 1011.1 - 0.0
30/04:30pm 29.2 29.3 20.0 57 6.0 E 19 30 10 16 1010.9 - 0.0
30/04:00pm 30.1 29.8 19.6 53 6.9 E 20 32 11 17 1010.7 - 0.0
30/03:30pm 30.6 30.3 19.6 51 7.2 E 20 26 11 14 1010.5 - 0.0
30/03:00pm 30.8 29.7 19.4 50 7.5 ESE 24 37 13 20 1010.7 1010.5 0.0
30/02:30pm 30.2 28.6 19.1 51 7.2 ESE 26 35 14 19 1011.1 - 0.0
30/02:00pm 31.2 29.6 19.1 48 7.9 ESE 26 41 14 22 1011.6 - 0.0
30/01:30pm 30.5 29.3 19.2 51 7.4 ESE 24 35 13 19 1012.2 - 0.0
30/01:00pm 29.9 29.1 20.0 55 6.5 ESE 24 35 13 19 1012.6 - 0.0
30/12:30pm 30.1 30.3 20.1 55 6.6 E 19 30 10 16 1013.2 - 0.0
30/12:00pm 29.1 29.7 20.2 58 5.9 E 17 28 9 15 1013.8 1013.6 0.0
30/11:30am 28.4 28.4 20.2 61 5.4 E 20 30 11 16 1014.6 - 0.0
30/11:00am 27.9 27.8 20.0 62 5.2 ESE 20 28 11 15 1015.0 - 0.0
30/10:30am 28.2 28.6 19.9 60 5.4 ESE 17 26 9 14 1015.0 - 0.0
30/10:00am 27.4 27.4 20.2 65 4.7 ESE 20 32 11 17 1015.2 - 0.0
30/09:30am 26.6 26.3 20.3 68 4.1 ESE 22 30 12 16 1015.2 - 0.0
30/09:00am 25.7 26.5 20.6 73 3.3 ESE 17 24 9 13 1015.3 1015.1 0.0
30/08:30am 24.4 25.5 20.5 79 2.5 ESE 15 20 8 11 1014.9 - 0.0
30/08:00am 23.0 25.8 20.5 86 1.6 SSE 6 9 3 5 1014.9 - 0.0
30/07:30am 21.9 24.6 20.3 91 1.0 SE 6 7 3 4 1014.7 - 0.0
30/07:00am 21.7 24.1 20.0 90 1.1 SE 7 9 4 5 1014.4 - 0.0
30/06:30am 21.4 23.9 19.8 91 1.0 SSE 6 9 3 5 1014.2 - 0.0
30/06:00am 21.5 23.9 19.7 89 1.1 SE 6 7 3 4 1013.7 1013.5 0.0
30/05:30am 21.6 24.4 19.7 89 1.2 S 4 6 2 3 1013.4 - 0.0
30/05:00am 22.2 24.6 19.7 86 1.6 SE 6 7 3 4 1013.1 - 0.0
30/04:30am 22.6 24.4 19.6 83 1.9 SSE 9 17 5 9 1012.9 - 0.0
30/04:00am 22.9 24.3 19.6 81 2.1 SE 11 19 6 10 1013.0 - 0.0
30/03:30am 23.3 24.4 19.6 80 2.4 SE 13 19 7 10 1012.9 - 0.0
30/03:00am 23.4 23.7 19.6 79 2.4 ESE 17 24 9 13 1013.0 1012.8 0.0
30/02:30am 23.6 23.9 19.6 78 2.6 SE 17 26 9 14 1013.2 - 0.0
30/02:00am 24.0 23.7 19.5 76 2.9 SE 20 26 11 14 1013.3 - 0.0
30/01:30am 24.2 23.9 19.5 75 3.0 ESE 20 28 11 15 1013.8 - 0.0
30/01:00am 24.2 23.9 19.5 75 3.0 ESE 20 28 11 15 1014.1 - 0.0
30/12:30am 24.3 24.2 19.5 74 3.1 ESE 19 26 10 14 1014.2 - 0.0
30/12:00am 24.6 24.5 19.5 73 3.3 ESE 19 26 10 14 1014.4 1014.2 0.0
 
Date/Time
EST
Temp
°C
App
Temp
°C
Dew
Point
Rel
Hum
%
Delta-T
°C
Wind Press
QNH
hPa
Press
MSL
hPa
Rain
since 9 am
mm
Dir
 
Spd
km/h
Gust
km/h
Spd
kts
Gust
kts
29/11:30pm 24.6 24.6 19.8 74 3.1 ESE 19 32 10 17 1014.4 - 0.0
29/11:00pm 24.7 24.7 20.1 75 3.0 ESE 20 28 11 15 1014.7 - 0.0
29/10:30pm 24.9 25.0 20.3 75 3.0 ESE 20 32 11 17 1015.0 - 0.0
29/10:00pm 25.0 25.2 20.5 76 2.9 ESE 20 32 11 17 1014.9 - 0.0
29/09:30pm 25.1 25.4 20.8 77 2.8 ESE 20 32 11 17 1014.7 - 0.0
29/09:00pm 25.1 26.1 21.0 78 2.7 ESE 17 24 9 13 1014.7 1014.5 0.0
29/08:30pm 25.3 26.6 20.8 76 3.0 ESE 15 22 8 12 1014.3 - 0.0
29/08:00pm 25.6 25.6 20.9 75 3.1 ESE 22 35 12 19 1014.0 - 0.0
29/07:30pm 25.8 25.7 20.8 74 3.3 SE 22 33 12 18 1013.7 - 0.0
29/07:00pm 26.2 27.0 20.7 71 3.6 ESE 17 24 9 13 1013.5 - 0.0
29/06:30pm 26.4 27.2 20.7 71 3.7 ESE 17 28 9 15 1013.1 - 0.0
29/06:00pm 26.7 27.0 20.7 69 4.0 ESE 20 32 11 17 1012.9 1012.7 0.0
29/05:30pm 27.0 27.2 20.6 68 4.2 ESE 20 32 11 17 1012.7 - 0.0
29/05:00pm 27.3 25.2 20.6 67 4.4 ESE 32 43 17 23 1012.3 - 0.0
29/04:50pm 28.5 27.2 20.7 62 5.2 ESE 28 48 15 26 1012.1 - 0.0
29/04:30pm 29.1 28.0 20.2 58 5.9 E 26 39 14 21 1011.9 - 0.0
29/04:00pm 28.1 27.6 20.8 64 4.8 E 24 39 13 21 1011.9 - 0.0
29/03:30pm 28.9 27.4 20.9 62 5.3 ESE 30 43 16 23 1011.7 - 0.0
29/03:00pm 30.1 28.8 20.7 57 6.3 ESE 28 44 15 24 1011.7 1011.5 0.0
29/02:30pm 28.4 27.5 21.5 66 4.6 ESE 28 41 15 22 1012.1 - 0.0
29/02:02pm 30.1 28.2 20.9 57 6.1 ESE 32 50 17 27 1012.1 - 0.0
29/02:00pm 29.7 28.1 20.8 58 5.9 ESE 30 43 16 23 1012.1 - 0.0
29/01:37pm 28.1 27.6 22.8 73 3.6 ESE 30 48 16 26 1012.4 - 0.0
29/01:30pm 29.3 27.4 20.9 60 5.6 E 32 44 17 24 1012.5 - 0.0
29/01:00pm 29.4 27.9 21.0 60 5.6 ESE 30 43 16 23 1012.9 - 0.0
29/12:40pm 27.9 26.3 21.6 68 4.2 ESE 32 52 17 28 1013.1 - 0.0
29/12:30pm 29.4 29.0 20.9 60 5.7 E 24 32 13 17 1013.0 - 0.0
29/12:00pm 28.5 26.9 20.7 62 5.2 E 30 43 16 23 1013.5 1013.3 0.0
29/11:30am 28.9 29.4 21.1 62 5.2 E 20 32 11 17 1013.8 - 0.0
29/11:19am 27.9 26.6 21.4 67 4.3 ESE 30 48 16 26 1014.1 - 0.0
29/11:00am 28.4 26.7 20.6 62 5.2 ESE 30 41 16 22 1014.2 - 0.0
29/10:30am 29.2 27.9 20.7 60 5.6 ESE 28 43 15 23 1014.3 - 0.0
29/10:00am 28.2 26.6 20.7 63 5.0 ESE 30 44 16 24 1014.3 - 0.0
29/09:30am 27.5 26.8 21.0 67 4.3 ESE 26 41 14 22 1014.5 - 0.0
29/09:00am 26.6 26.3 21.1 72 3.6 ESE 24 35 13 19 1014.3 1014.1 1.0
29/08:30am 25.5 26.2 21.2 77 2.8 SE 19 32 10 17 1014.1 - 1.0
29/08:00am 25.3 25.9 21.0 77 2.8 SE 19 28 10 15 1013.6 - 1.0
29/07:30am 24.2 25.6 21.0 82 2.1 SE 15 24 8 13 1013.5 - 1.0
29/07:00am 24.1 25.4 20.9 82 2.1 SE 15 24 8 13 1013.3 - 1.0
29/06:30am 24.2 24.7 20.9 82 2.2 SE 19 24 10 13 1013.2 - 1.0
29/06:00am 24.0 25.0 21.0 83 2.0 SE 17 22 9 12 1012.9 1012.7 1.0
29/05:30am 24.0 25.0 21.0 83 2.0 ESE 17 24 9 13 1012.8 - 1.0
29/05:00am 24.0 25.0 21.0 83 2.0 ESE 17 24 9 13 1012.9 - 1.0
29/04:30am 24.2 24.6 21.0 82 2.1 ESE 20 30 11 16 1012.7 - 1.0
29/04:00am 24.1 24.6 21.2 84 1.9 ESE 20 32 11 17 1012.7 - 1.0
29/03:30am 24.0 25.2 21.4 85 1.7 SE 17 26 9 14 1012.9 - 1.0
29/03:00am 24.0 25.3 21.6 86 1.6 SE 17 24 9 13 1012.9 1012.7 1.0
29/02:30am 23.9 25.2 21.6 87 1.5 SE 17 26 9 14 1013.1 - 1.0
29/02:00am 24.2 24.5 21.5 85 1.8 SE 22 33 12 18 1013.2 - 1.0
29/01:30am 24.7 24.5 21.3 81 2.2 SE 24 37 13 20 1013.4 - 1.0
29/01:00am 24.9 24.7 21.3 80 2.4 SE 24 35 13 19 1013.6 - 1.0
29/12:30am 24.9 26.4 21.2 80 2.4 SE 15 22 8 12 1013.7 - 1.0
29/12:00am 25.2 25.7 21.2 78 2.6 ESE 20 28 11 15 1014.0 1013.8 1.0
 
Date/Time
EST
Temp
°C
App
Temp
°C
Dew
Point
Rel
Hum
%
Delta-T
°C
Wind Press
QNH
hPa
Press
MSL
hPa
Rain
since 9 am
mm
Dir
 
Spd
km/h
Gust
km/h
Spd
kts
Gust
kts
28/11:30pm 25.5 26.1 21.0 76 3.0 SE 19 35 10 19 1014.0 - 1.0
28/11:00pm 25.5 26.1 21.1 76 2.9 ESE 19 28 10 15 1014.1 - 1.0
28/10:30pm 25.4 26.1 21.2 77 2.8 SE 19 28 10 15 1014.1 - 1.0
28/10:00pm 25.6 26.3 21.2 76 2.9 SE 19 24 10 13 1014.1 - 1.0
28/09:30pm 25.7 25.1 21.2 76 3.0 SE 26 39 14 21 1013.9 - 1.0
28/09:00pm 25.8 26.4 21.3 76 3.0 ESE 20 30 11 16 1013.7 1013.5 1.0
28/08:30pm 25.7 26.0 21.5 77 2.8 ESE 22 32 12 17 1013.4 - 1.0
28/08:00pm 25.4 26.3 21.9 81 2.3 ESE 20 26 11 14 1013.2 - 1.0
28/07:30pm 25.6 25.7 21.9 80 2.5 ESE 24 39 13 21 1012.8 - 1.0
28/07:00pm 26.0 26.1 21.9 78 2.7 ESE 24 35 13 19 1012.4 - 1.0
28/06:30pm 25.9 26.6 22.2 80 2.5 ESE 22 33 12 18 1012.0 - 1.0
28/06:00pm 25.9 26.1 22.8 83 2.1 ESE 26 43 14 23 1011.8 1011.6 1.0
28/05:30pm 27.2 28.7 22.7 76 3.0 ESE 19 28 10 15 1011.2 - 1.0
28/05:00pm 27.3 28.6 23.3 79 2.7 ESE 22 33 12 18 1011.0 - 1.0
28/04:30pm 26.7 28.3 23.8 84 2.0 ESE 22 35 12 19 1010.9 - 1.0
28/04:20pm 26.3 27.4 23.7 85 1.8 ESE 24 37 13 20 1010.9 - 1.0
28/04:00pm 25.9 27.2 24.0 89 1.3 SE 24 41 13 22 1010.9 - 0.8
28/03:59pm 26.1 27.8 24.0 88 1.4 SE 22 39 12 21 1010.8 - 0.8
28/03:30pm 27.4 29.0 23.2 78 2.9 SE 20 28 11 15 1010.6 - 0.4
28/03:00pm 28.6 30.8 23.3 73 3.6 SE 17 26 9 14 1010.5 1010.3 0.4
28/02:30pm 28.8 31.5 24.1 76 3.3 ESE 17 24 9 13 1010.7 - 0.4
28/02:00pm 27.0 29.5 24.4 86 1.8 ESE 19 28 10 15 1011.0 - 0.4
28/01:56pm 26.6 29.0 24.2 87 1.7 ESE 19 24 10 13 1011.1 - 0.4
28/01:34pm 26.6 27.2 24.2 87 1.7 ESE 28 39 15 21 1011.6 - 0.4
28/01:30pm 26.8 27.3 23.9 84 2.0 ESE 28 39 15 21 1011.5 - 0.4
28/01:00pm 28.6 30.2 23.2 72 3.7 ESE 20 26 11 14 1011.7 - 0.0
28/12:30pm 28.7 29.8 22.4 68 4.3 SE 20 30 11 16 1011.9 - 0.0
28/12:00pm 29.5 29.7 22.0 64 5.1 SE 24 35 13 19 1012.3 1012.1 0.0
28/11:30am 28.9 29.8 22.0 66 4.7 E 20 32 11 17 1012.9 - 0.0
28/11:00am 27.9 30.0 22.4 72 3.7 SE 15 24 8 13 1013.3 - 0.0
28/10:30am 28.1 29.1 22.1 70 4.0 ESE 20 28 11 15 1013.5 - 0.0
28/10:00am 27.2 28.4 22.1 73 3.4 ESE 19 26 10 14 1013.7 - 0.0
28/09:30am 26.3 27.7 21.9 77 2.9 ESE 17 22 9 12 1013.9 - 0.0
28/09:00am 25.8 27.5 21.7 78 2.7 SE 15 24 8 13 1013.9 1013.7 0.0
28/08:30am 25.6 28.4 21.6 78 2.7 SE 9 15 5 8 1013.6 - 0.0
28/08:00am 24.7 27.7 21.3 81 2.2 SSE 7 11 4 6 1013.4 - 0.0
28/07:30am 24.2 27.1 21.0 82 2.1 SSE 7 11 4 6 1013.1 - 0.0
28/07:00am 23.9 26.7 20.8 83 2.0 SSE 7 11 4 6 1012.9 - 0.0
28/06:30am 23.6 27.1 21.1 86 1.6 S 4 6 2 3 1012.6 - 0.0
28/06:00am 23.7 27.1 20.9 84 1.8 S 4 6 2 3 1012.3 1012.1 0.0
28/05:30am 23.9 26.8 20.7 82 2.1 S 6 7 3 4 1012.1 - 0.0
28/05:00am 23.7 27.0 20.7 83 2.0 SSE 4 6 2 3 1012.0 - 0.0
28/04:30am 23.4 26.4 20.8 85 1.7 S 6 7 3 4 1011.7 - 0.0
28/04:00am 23.5 26.4 20.6 84 1.9 S 6 7 3 4 1011.7 - 0.0
28/03:30am 23.5 26.5 20.8 85 1.8 S 6 7 3 4 1011.7 - 0.0
28/03:00am 23.5 27.2 20.8 85 1.8 S 2 6 1 3 1011.9 1011.7 0.0
28/02:30am 23.4 27.0 20.6 84 1.8 S 2 6 1 3 1012.1 - 0.0
28/02:00am 23.3 26.5 20.6 85 1.8 ESE 4 6 2 3 1012.3 - 0.0
28/01:30am 23.3 26.1 20.4 84 1.9 SE 6 7 3 4 1012.4 - 0.0
28/01:00am 23.9 26.1 20.3 80 2.3 SE 9 15 5 8 1012.6 - 0.0
28/12:30am 23.8 26.4 20.4 81 2.2 SSE 7 11 4 6 1012.8 - 0.0
28/12:00am 24.2 26.8 20.5 80 2.4 SSE 7 11 4 6 1013.1 1012.9 0.0
 
Date/Time
EST
Temp
°C
App
Temp
°C
Dew
Point
Rel
Hum
%
Delta-T
°C
Wind Press
QNH
hPa
Press
MSL
hPa
Rain
since 9 am
mm
Dir
 
Spd
km/h
Gust
km/h
Spd
kts
Gust
kts
27/11:30pm 24.1 26.9 20.5 80 2.3 SE 6 9 3 5 1013.4 - 0.0
27/11:00pm 24.7 26.5 20.4 77 2.8 SE 11 17 6 9 1013.5 - 0.0
27/10:30pm 25.0 26.8 20.3 75 3.1 SE 11 19 6 10 1013.5 - 0.0

Other Formats:

Comma delimited format used in spreadsheet applications
http://www.bom.gov.au/fwo/IDQ60801/IDQ60801.94170.axf

JavaScript Object Notation format (JSON) in row-major order
http://www.bom.gov.au/fwo/IDQ60801/IDQ60801.94170.json